createdAt,value
2019-01-11T00:00:43.536Z,8.73
2019-01-11T00:03:43.887Z,9.40
2019-01-11T00:06:43.835Z,7.40
2019-01-11T00:09:47.168Z,10.23
2019-01-11T00:12:46.559Z,6.47
2019-01-11T00:15:45.891Z,8.03
2019-01-11T00:18:45.259Z,7.43
2019-01-11T00:21:44.732Z,6.47
2019-01-11T00:24:43.993Z,7.03
2019-01-11T00:27:47.821Z,6.50
2019-01-11T00:30:47.186Z,7.73
2019-01-11T00:33:46.717Z,7.43
2019-01-11T00:36:46.076Z,9.13
2019-01-11T00:39:45.404Z,6.47
2019-01-11T00:42:44.719Z,7.80
2019-01-11T00:45:44.226Z,5.80
2019-01-11T00:51:48.050Z,6.00
2019-01-11T00:54:47.323Z,8.37
2019-01-11T00:57:46.514Z,8.00
2019-01-11T01:00:49.310Z,6.57
2019-01-11T01:03:49.120Z,5.30
2019-01-11T01:06:48.363Z,5.83
2019-01-11T01:09:47.935Z,5.27
2019-01-11T01:12:47.534Z,5.90
2019-01-11T01:15:50.718Z,5.70
2019-01-11T01:18:50.131Z,6.50
2019-01-11T01:21:49.536Z,5.63
2019-01-11T01:24:49.115Z,6.70
2019-01-11T01:27:48.437Z,6.40
2019-01-11T01:30:47.708Z,7.80
2019-01-11T01:33:51.950Z,6.20
2019-01-11T01:36:52.030Z,5.73
2019-01-11T01:39:51.281Z,6.70
2019-01-11T01:42:50.543Z,5.47
2019-01-11T01:45:50.488Z,5.87
2019-01-11T01:48:49.714Z,5.53
2019-01-11T01:51:49.132Z,5.07
2019-01-11T01:54:48.482Z,5.90
2019-01-11T01:57:47.801Z,5.67
2019-01-11T02:00:53.348Z,6.03
2019-01-11T02:03:53.543Z,5.20
2019-01-11T02:06:53.661Z,7.10
2019-01-11T02:09:53.786Z,6.33
2019-01-11T02:12:53.750Z,6.23
2019-01-11T02:15:53.247Z,6.87
2019-01-11T02:18:53.030Z,5.60
2019-01-11T02:21:54.414Z,5.53
2019-01-11T02:24:53.873Z,5.80
2019-01-11T02:27:54.234Z,5.90
2019-01-11T02:30:53.430Z,6.13
2019-01-11T02:33:56.209Z,6.07
2019-01-11T02:36:55.603Z,4.90
2019-01-11T02:39:55.087Z,5.90
2019-01-11T02:42:54.477Z,5.77
2019-01-11T02:45:53.884Z,6.43
2019-01-11T02:48:53.409Z,6.70
2019-01-11T02:51:56.671Z,5.63
2019-01-11T02:54:55.970Z,7.37
2019-01-11T02:57:55.829Z,7.87
2019-01-11T03:00:57.197Z,6.40
2019-01-11T03:03:56.478Z,8.97
2019-01-11T03:06:55.675Z,7.17
2019-01-11T03:09:58.422Z,5.17
2019-01-11T03:12:57.605Z,6.60
2019-01-11T03:15:56.991Z,7.43
2019-01-11T03:18:57.411Z,6.17
2019-01-11T03:21:56.753Z,7.33
2019-01-11T03:24:56.536Z,6.77
2019-01-11T03:27:56.591Z,5.77
2019-01-11T03:30:58.607Z,6.63
2019-01-11T03:33:58.594Z,7.57
2019-01-11T03:36:58.062Z,7.00
2019-01-11T03:39:58.113Z,8.13
2019-01-11T03:42:58.627Z,6.63
2019-01-11T03:45:58.156Z,5.97
2019-01-11T03:48:57.670Z,6.50
2019-01-11T03:51:57.629Z,7.67
2019-01-11T03:54:56.981Z,5.67
2019-01-11T03:57:56.277Z,6.57
2019-01-11T04:00:55.779Z,6.80
2019-01-11T04:03:55.168Z,5.40
2019-01-11T04:06:55.085Z,6.07
2019-01-11T04:09:55.996Z,7.83
2019-01-11T04:12:58.161Z,6.13
2019-01-11T04:15:57.725Z,6.63
2019-01-11T04:19:08.251Z,6.67
2019-01-11T04:22:43.060Z,6.70
2019-01-11T04:25:44.444Z,6.83
2019-01-11T04:28:44.419Z,5.63
2019-01-11T04:31:43.578Z,7.13
2019-01-11T04:34:43.564Z,6.80
2019-01-11T04:37:42.844Z,5.33
2019-01-11T04:40:42.719Z,7.27
2019-01-11T04:43:47.754Z,6.80
2019-01-11T04:46:47.000Z,6.97
2019-01-11T04:49:49.413Z,8.00
2019-01-11T04:52:51.223Z,6.87
2019-01-11T04:55:50.504Z,6.27
2019-01-11T04:58:50.629Z,6.30
2019-01-11T05:01:49.851Z,7.00
2019-01-11T05:04:52.854Z,4.77
2019-01-11T05:07:52.172Z,6.77
2019-01-11T05:11:01.755Z,6.10
2019-01-11T05:14:01.157Z,5.10
2019-01-11T05:17:01.584Z,5.33
2019-01-11T05:20:01.190Z,5.43
2019-01-11T05:23:02.333Z,6.23
2019-01-11T05:26:01.711Z,6.90
2019-01-11T05:29:07.990Z,6.07
2019-01-11T05:32:07.899Z,5.07
2019-01-11T05:35:07.882Z,6.73
2019-01-11T05:38:07.187Z,7.83
2019-01-11T05:41:08.434Z,4.83
2019-01-11T05:44:07.603Z,4.67
2019-01-11T05:47:07.847Z,5.60
2019-01-11T05:50:09.008Z,6.80
2019-01-11T05:53:08.306Z,6.13
2019-01-11T05:56:11.204Z,4.70
2019-01-11T05:59:10.685Z,5.50
2019-01-11T06:02:09.886Z,5.27
2019-01-11T06:05:11.568Z,4.57
2019-01-11T06:08:14.619Z,5.70
2019-01-11T06:11:13.891Z,6.03
2019-01-11T06:14:13.660Z,5.03
2019-01-11T06:17:12.991Z,4.37
2019-01-11T06:20:15.243Z,5.17
2019-01-11T06:23:15.634Z,5.73
2019-01-11T06:26:15.655Z,4.10
2019-01-11T06:29:14.913Z,4.87
2019-01-11T06:32:15.002Z,5.80
2019-01-11T06:35:14.307Z,5.33
2019-01-11T06:38:13.770Z,5.80
2019-01-11T06:41:13.090Z,4.17
2019-01-11T06:44:12.318Z,4.93
2019-01-11T06:47:12.423Z,4.37
2019-01-11T06:50:14.061Z,4.77
2019-01-11T06:53:13.290Z,4.70
2019-01-11T06:56:12.578Z,6.33
2019-01-11T06:59:11.870Z,5.43
2019-01-11T07:02:11.710Z,4.27
2019-01-11T07:05:11.491Z,6.20
2019-01-11T07:08:11.835Z,4.37
2019-01-11T07:11:11.974Z,5.53
2019-01-11T07:14:12.990Z,4.40
2019-01-11T07:17:12.437Z,4.87
2019-01-11T07:20:12.476Z,6.07
2019-01-11T07:23:12.658Z,6.13
2019-01-11T07:26:13.248Z,4.73
2019-01-11T07:29:13.669Z,4.67
2019-01-11T07:32:14.329Z,5.87
2019-01-11T07:35:15.031Z,5.80
2019-01-11T07:38:14.298Z,5.03
2019-01-11T07:41:14.349Z,5.97
2019-01-11T07:44:17.302Z,5.20
2019-01-11T07:47:16.527Z,7.37
2019-01-11T07:50:16.666Z,5.70
2019-01-11T07:53:16.053Z,5.80
2019-01-11T07:56:18.138Z,5.53
2019-01-11T07:59:18.815Z,5.87
2019-01-11T08:02:18.722Z,6.13
2019-01-11T08:05:18.179Z,6.57
2019-01-11T08:08:18.224Z,6.07
2019-01-11T08:11:19.925Z,7.03
2019-01-11T08:14:21.248Z,5.20
2019-01-11T08:17:20.539Z,6.10
2019-01-11T08:20:19.844Z,4.60
2019-01-11T08:23:21.174Z,5.73
2019-01-11T08:26:20.667Z,4.33
2019-01-11T08:29:19.946Z,7.07
2019-01-11T08:32:19.100Z,7.03
2019-01-11T08:35:18.514Z,5.60
2019-01-11T08:38:19.580Z,6.43
2019-01-11T08:41:18.803Z,4.93
2019-01-11T08:44:21.752Z,5.57
2019-01-11T08:47:20.996Z,6.00
2019-01-11T08:50:20.559Z,4.77
2019-01-11T08:53:19.866Z,4.60
2019-01-11T08:56:19.368Z,5.37
2019-01-11T08:59:19.046Z,4.90
2019-01-11T09:02:18.895Z,5.60
2019-01-11T09:05:26.370Z,5.43
2019-01-11T09:08:33.893Z,7.33
2019-01-11T09:11:33.711Z,5.53
2019-01-11T09:14:42.112Z,6.10
2019-01-11T09:18:26.728Z,4.93
2019-01-11T09:21:26.083Z,5.57
2019-01-11T09:24:25.459Z,6.30
2019-01-11T09:27:26.033Z,6.40
2019-01-11T09:30:25.455Z,6.67
2019-01-11T09:33:26.884Z,5.57
2019-01-11T09:36:26.259Z,6.80
2019-01-11T09:39:26.799Z,6.73
2019-01-11T09:42:32.063Z,6.07
2019-01-11T09:45:32.198Z,6.57
2019-01-11T09:48:31.591Z,6.03
2019-01-11T09:51:31.530Z,8.27
2019-01-11T09:54:30.915Z,9.03
2019-01-11T09:57:30.362Z,6.53
2019-01-11T10:00:31.347Z,7.20
2019-01-11T10:03:30.571Z,7.33
2019-01-11T10:06:31.798Z,7.37
2019-01-11T10:09:31.745Z,6.47
2019-01-11T10:12:31.191Z,6.73
2019-01-11T10:15:30.730Z,5.77
2019-01-11T10:18:30.743Z,6.03
2019-01-11T10:21:40.566Z,5.97
2019-01-11T10:24:40.153Z,6.10
2019-01-11T10:27:40.679Z,7.50
2019-01-11T10:30:39.916Z,5.90
2019-01-11T10:33:39.814Z,6.57
2019-01-11T10:36:41.565Z,7.43
2019-01-11T10:39:40.881Z,6.00
2019-01-11T10:42:41.866Z,8.03
2019-01-11T10:45:41.207Z,7.03
2019-01-11T10:48:40.566Z,5.53
2019-01-11T10:51:40.018Z,7.77
2019-01-11T10:54:42.545Z,5.83
2019-01-11T10:57:41.979Z,5.37
2019-01-11T11:00:42.635Z,6.27
2019-01-11T11:03:42.095Z,7.27
2019-01-11T11:06:46.185Z,7.63
2019-01-11T11:09:45.541Z,9.07
2019-01-11T11:12:44.866Z,8.53
2019-01-11T11:15:46.119Z,6.40
2019-01-11T11:18:45.270Z,7.67
2019-01-11T11:21:45.386Z,6.20
2019-01-11T11:24:44.698Z,6.87
2019-01-11T11:27:44.234Z,8.80
2019-01-11T11:30:43.693Z,8.47
2019-01-11T11:33:45.053Z,7.13
2019-01-11T11:36:45.177Z,7.53
2019-01-11T11:43:14.795Z,8.57
2019-01-11T11:46:22.087Z,7.87
2019-01-11T11:49:22.059Z,7.53
2019-01-11T11:52:21.853Z,9.03
2019-01-11T11:55:29.631Z,7.57
2019-01-11T11:58:29.756Z,7.83
2019-01-11T12:01:46.734Z,7.70
2019-01-11T12:04:48.009Z,9.33
2019-01-11T12:07:50.326Z,7.57
2019-01-11T12:10:49.807Z,7.73
2019-01-11T12:13:50.374Z,8.80
2019-01-11T12:16:52.082Z,8.10
2019-01-11T12:19:51.376Z,6.67
2019-01-11T12:22:50.690Z,8.13
2019-01-11T12:25:50.130Z,8.40
2019-01-11T12:28:49.558Z,8.43
2019-01-11T12:31:48.911Z,9.30
2019-01-11T12:34:48.188Z,7.20
2019-01-11T12:37:49.859Z,7.87
2019-01-11T12:40:49.254Z,7.50
2019-01-11T12:43:49.900Z,10.03
2019-01-11T12:46:50.250Z,7.03
2019-01-11T12:49:50.626Z,8.73
2019-01-11T12:52:49.963Z,6.87
2019-01-11T12:55:49.460Z,7.23
2019-01-11T12:58:48.888Z,9.63
2019-01-11T13:01:48.083Z,8.70
2019-01-11T13:04:47.992Z,7.53
2019-01-11T13:07:47.448Z,7.20
2019-01-11T13:10:48.729Z,9.03
2019-01-11T13:13:48.230Z,8.10
2019-01-11T13:16:48.415Z,9.20
2019-01-11T13:19:48.793Z,8.07
2019-01-11T13:22:48.584Z,9.07
2019-01-11T13:25:49.134Z,8.17
2019-01-11T13:28:49.037Z,8.37
2019-01-11T13:31:53.887Z,7.30
2019-01-11T13:34:53.149Z,9.13
2019-01-11T13:37:52.564Z,9.57
2019-01-11T13:40:51.985Z,9.43
2019-01-11T13:50:47.020Z,8.50
2019-01-11T13:53:47.104Z,7.70
2019-01-11T13:56:47.691Z,7.70
2019-01-11T13:59:47.326Z,7.20
2019-01-11T14:02:46.838Z,8.63
2019-01-11T14:05:46.313Z,7.50
2019-01-11T14:08:45.722Z,9.87
2019-01-11T14:11:45.163Z,7.43
2019-01-11T14:14:44.426Z,7.27
2019-01-11T14:17:44.291Z,8.27
2019-01-11T14:20:45.634Z,8.20
2019-01-11T14:23:45.915Z,8.20
2019-01-11T14:26:50.865Z,7.70
2019-01-11T14:29:50.889Z,8.17
2019-01-11T14:32:56.008Z,11.40
2019-01-11T14:35:55.514Z,7.80
2019-01-11T14:39:02.064Z,9.33
2019-01-11T14:42:06.213Z,10.93
2019-01-11T14:45:07.678Z,8.13
2019-01-11T14:48:07.475Z,8.50
2019-01-11T14:51:08.119Z,9.17
2019-01-11T14:54:13.661Z,8.23
2019-01-11T14:57:12.918Z,9.13
2019-01-11T15:00:17.899Z,8.20
2019-01-11T15:03:17.830Z,9.57
2019-01-11T15:06:22.986Z,8.60
2019-01-11T15:09:22.296Z,11.73
2019-01-11T15:12:25.867Z,9.20
2019-01-11T15:15:26.437Z,8.43
2019-01-11T15:18:25.857Z,9.30
2019-01-11T15:21:25.260Z,9.93
2019-01-11T15:24:24.869Z,10.57
2019-01-11T15:44:56.904Z,9.80
2019-01-11T15:47:57.058Z,10.47
2019-01-11T15:50:58.356Z,14.00
2019-01-11T15:54:00.517Z,9.57
2019-01-11T15:57:00.471Z,9.03
2019-01-11T16:00:01.860Z,13.73
2019-01-11T16:03:02.113Z,10.83
2019-01-11T16:06:12.623Z,12.60
2019-01-11T16:09:21.682Z,11.63
2019-01-11T16:12:22.221Z,12.07
2019-01-11T16:15:32.663Z,13.17
2019-01-11T16:18:32.758Z,10.57
2019-01-11T16:21:32.985Z,10.73
2019-01-11T16:24:33.845Z,11.67
2019-01-11T16:27:34.009Z,10.67
2019-01-11T16:30:35.362Z,11.67
2019-01-11T16:33:36.378Z,10.17
2019-01-11T16:36:37.582Z,11.13
2019-01-11T16:39:37.207Z,10.27
2019-01-11T16:42:42.816Z,11.20
2019-01-11T16:45:42.084Z,10.03
2019-01-11T16:48:43.971Z,10.50
2019-01-11T16:51:43.279Z,12.67
2019-01-11T16:54:44.524Z,10.50
2019-01-11T16:57:44.380Z,10.63
2019-01-11T17:00:47.546Z,12.20
2019-01-11T17:03:46.868Z,11.67
2019-01-11T17:06:46.266Z,10.83
2019-01-11T17:09:45.483Z,10.87
2019-01-11T17:12:45.208Z,12.40
2019-01-11T17:15:44.647Z,11.33
2019-01-11T17:18:44.238Z,10.93
2019-01-11T17:21:43.678Z,9.87
2019-01-11T17:24:44.043Z,13.07
2019-01-11T17:27:47.577Z,9.87
2019-01-11T17:30:46.858Z,11.30
2019-01-11T17:33:47.627Z,9.90
2019-01-11T17:36:47.690Z,10.27
2019-01-11T17:39:48.922Z,10.80
2019-01-11T17:42:48.176Z,10.47
2019-01-11T17:45:48.671Z,9.97
2019-01-11T17:48:48.374Z,10.77
2019-01-11T17:51:49.108Z,10.23
2019-01-11T17:54:48.315Z,10.47
2019-01-11T17:57:48.710Z,10.53
2019-01-11T18:00:48.153Z,11.60
2019-01-11T18:12:57.754Z,9.63
2019-01-11T18:15:57.951Z,9.10
2019-01-11T18:18:58.203Z,9.37
2019-01-11T18:21:57.897Z,10.03
2019-01-11T18:24:57.365Z,9.40
2019-01-11T18:27:56.671Z,8.67
2019-01-11T18:30:56.129Z,10.63
2019-01-11T18:33:56.506Z,10.67
2019-01-11T18:36:56.665Z,9.43
2019-01-11T18:39:57.812Z,8.83
2019-01-11T18:42:58.221Z,8.73
2019-01-11T18:45:57.616Z,9.20
2019-01-11T18:48:57.116Z,7.57
2019-01-11T18:51:56.602Z,10.33
2019-01-11T18:54:57.345Z,9.10
2019-01-11T18:57:57.324Z,9.47
2019-01-11T19:00:59.788Z,10.83
2019-01-11T19:03:59.302Z,8.63
2019-01-11T19:07:00.582Z,10.43
2019-01-11T19:09:59.949Z,8.30
2019-01-11T19:34:03.286Z,7.13
2019-01-11T19:37:05.926Z,7.80
2019-01-11T19:40:06.700Z,8.93
2019-01-11T19:43:06.005Z,9.37
2019-01-11T20:07:08.847Z,6.90
2019-01-11T20:10:15.794Z,6.63
2019-01-11T20:13:16.030Z,6.37
2019-01-11T20:16:16.506Z,6.80
2019-01-11T20:19:17.775Z,6.77
2019-01-11T20:22:17.397Z,7.63
2019-01-11T20:46:18.312Z,6.27
2019-01-11T20:49:19.373Z,7.27
2019-01-11T20:52:19.695Z,7.17
2019-01-11T20:55:21.429Z,8.23
2019-01-11T20:58:20.624Z,6.87
2019-01-11T21:01:21.153Z,5.97
2019-01-11T21:04:20.454Z,6.03
2019-01-11T21:07:20.837Z,8.13
2019-01-11T21:10:20.242Z,6.97
2019-01-11T21:13:23.862Z,6.67
2019-01-11T21:16:24.305Z,6.30
2019-01-11T21:19:23.518Z,7.13
2019-01-11T21:22:25.761Z,6.33
2019-01-11T21:25:25.560Z,6.47
2019-01-11T21:28:28.781Z,6.77
2019-01-11T21:31:28.111Z,6.53
2019-01-11T21:34:31.978Z,6.07
2019-01-11T21:37:32.237Z,7.93
2019-01-11T21:40:32.622Z,6.67
2019-01-11T21:43:32.891Z,7.37
2019-01-11T21:46:33.085Z,8.30
2019-01-11T21:49:32.457Z,6.57
2019-01-11T21:52:31.763Z,6.03
2019-01-11T21:55:32.863Z,6.63
2019-01-11T21:58:32.107Z,8.50
2019-01-11T22:01:32.544Z,6.50
2019-01-11T22:04:32.725Z,5.97
2019-01-11T22:07:33.231Z,6.70
2019-01-11T22:10:32.547Z,5.93
2019-01-11T22:13:37.992Z,6.17
2019-01-11T22:16:37.553Z,6.23
2019-01-11T22:19:38.031Z,7.57
2019-01-11T22:22:37.371Z,6.87
2019-01-11T22:25:38.549Z,7.77
2019-01-11T22:28:37.920Z,5.30
2019-01-11T22:31:41.754Z,7.07
2019-01-11T22:34:41.161Z,6.33
2019-01-11T22:37:40.630Z,6.20
2019-01-11T22:40:40.111Z,7.07
2019-01-11T22:43:39.535Z,6.70
2019-01-11T22:46:38.973Z,7.53
2019-01-11T22:49:39.832Z,6.10
2019-01-11T22:52:40.186Z,6.03
2019-01-11T22:55:40.425Z,5.57
2019-01-11T22:58:39.726Z,6.40
2019-01-11T23:01:49.523Z,5.47
2019-01-11T23:04:49.739Z,6.60
2019-01-11T23:07:55.717Z,6.53
2019-01-11T23:11:07.860Z,6.13
2019-01-11T23:14:08.130Z,6.27
2019-01-11T23:17:22.381Z,5.63
2019-01-11T23:20:21.744Z,6.27
2019-01-11T23:23:22.298Z,5.90
2019-01-11T23:26:21.518Z,6.30
2019-01-11T23:29:28.899Z,7.10
2019-01-11T23:32:28.359Z,7.00
2019-01-11T23:35:34.810Z,6.67
2019-01-11T23:38:35.717Z,6.20
2019-01-11T23:41:36.957Z,6.27
2019-01-11T23:44:36.977Z,6.17
2019-01-11T23:47:40.202Z,6.30
2019-01-11T23:50:39.725Z,5.93
2019-01-11T23:53:43.179Z,6.00
2019-01-11T23:56:42.487Z,8.07
2019-01-11T23:59:41.932Z,6.40
